Time;durP1;ratioP1;P1;durP2;ratioP2;P2;SDS_P1;SDS_P2;PMS_P1;PMS_P2;Temp;Humidity;BMP_temperature;BMP_pressure;BME280_temperature;BME280_humidity;BME280_pressure;Samples;Min_cycle;Max_cycle;Signal;HPM_P1;HPM_P2
2023/04/10 00:00:32;;;;;;;20.67;13.33;;;2.10;99.90;;;;;;5064806;28;20154;-74
2023/04/10 00:03:00;;;;;;;21.37;13.83;;;2.10;99.90;;;;;;5064023;28;20032;-74
2023/04/10 00:05:26;;;;;;;25.20;14.00;;;2.00;99.90;;;;;;5065272;28;20028;-74
2023/04/10 00:07:52;;;;;;;17.37;11.93;;;2.00;99.90;;;;;;5064668;28;20435;-74
2023/04/10 00:10:18;;;;;;;18.37;13.17;;;2.00;99.90;;;;;;5063316;28;20112;-74
2023/04/10 00:12:44;;;;;;;18.03;12.30;;;2.00;99.90;;;;;;5064949;28;20040;-74
2023/04/10 00:15:10;;;;;;;16.93;11.87;;;1.90;99.90;;;;;;5064279;28;20130;-74
2023/04/10 00:17:35;;;;;;;16.80;12.17;;;1.90;99.90;;;;;;5064375;28;20133;-74
2023/04/10 00:20:01;;;;;;;20.80;12.97;;;1.80;99.90;;;;;;5062567;28;20025;-74
2023/04/10 00:22:26;;;;;;;20.40;14.47;;;1.80;99.90;;;;;;5093864;22;20148;-75
2023/04/10 00:24:52;;;;;;;20.67;13.60;;;1.70;99.90;;;;;;5078227;28;20075;-77
2023/04/10 00:27:17;;;;;;;21.73;14.37;;;1.60;99.90;;;;;;5076802;28;20111;-77
2023/04/10 00:29:43;;;;;;;21.03;14.27;;;1.60;99.90;;;;;;5077012;28;20037;-76
2023/04/10 00:32:09;;;;;;;23.77;15.63;;;1.50;99.90;;;;;;5074287;28;20020;-75
2023/04/10 00:34:34;;;;;;;22.80;15.63;;;1.50;99.90;;;;;;5075349;28;20036;-76
2023/04/10 00:37:00;;;;;;;25.87;16.40;;;1.50;99.90;;;;;;5073921;28;20048;-75
2023/04/10 00:39:26;;;;;;;25.13;16.97;;;1.50;99.90;;;;;;5073155;28;20107;-74
2023/04/10 00:41:51;;;;;;;22.70;15.87;;;1.50;99.90;;;;;;5073715;28;20656;-74
2023/04/10 00:44:17;;;;;;;22.17;15.17;;;1.50;99.90;;;;;;5074761;28;20046;-74
2023/04/10 00:46:43;;;;;;;23.63;15.63;;;1.50;99.90;;;;;;5076699;28;20093;-74
2023/04/10 00:49:08;;;;;;;22.53;14.97;;;1.40;99.90;;;;;;5073921;28;20039;-74
2023/04/10 00:51:35;;;;;;;23.83;16.57;;;1.40;99.90;;;;;;5073051;28;20055;-74
2023/04/10 00:54:02;;;;;;;23.80;15.67;;;1.40;99.90;;;;;;5077634;28;20062;-74
2023/04/10 00:56:31;;;;;;;23.70;15.80;;;1.40;99.90;;;;;;5074155;28;20105;-74
2023/04/10 00:58:56;;;;;;;22.63;15.63;;;1.40;99.90;;;;;;5073243;28;20036;-74
2023/04/10 01:01:22;;;;;;;23.73;15.70;;;1.40;99.90;;;;;;5072938;28;20032;-74
2023/04/10 01:03:47;;;;;;;21.83;14.40;;;1.40;99.90;;;;;;5074793;28;20082;-75
2023/04/10 01:06:32;;;;;;;21.07;14.30;;;1.40;99.90;;;;;;5074596;28;20492;-74
2023/04/10 01:09:01;;;;;;;21.93;13.57;;;1.40;99.90;;;;;;5072324;28;20082;-74
2023/04/10 01:11:49;;;;;;;23.97;13.97;;;1.40;99.90;;;;;;5074040;28;20882;-74
2023/04/10 01:14:36;;;;;;;22.00;14.10;;;1.40;99.90;;;;;;5073388;28;20034;-74
2023/04/10 01:17:07;;;;;;;19.03;12.40;;;1.40;99.90;;;;;;5072577;28;21481;-74
2023/04/10 01:19:59;;;;;;;20.27;13.80;;;1.40;99.90;;;;;;5071978;28;20065;-74
2023/04/10 01:22:34;;;;;;;19.77;13.57;;;1.40;99.90;;;;;;5074327;28;21444;-74
2023/04/10 01:25:17;;;;;;;18.83;13.38;;;1.40;99.90;;;;;;5073190;28;20028;-74
2023/04/10 01:28:03;;;;;;;19.90;13.50;;;1.40;99.90;;;;;;5073293;28;20038;-74
2023/04/10 01:30:34;;;;;;;21.90;15.20;;;1.40;99.90;;;;;;5074518;28;20098;-75
2023/04/10 01:33:01;;;;;;;20.53;14.27;;;1.40;99.90;;;;;;5073486;28;20028;-74
2023/04/10 01:35:29;;;;;;;24.03;16.00;;;1.40;99.90;;;;;;5075310;28;20063;-75
2023/04/10 01:37:56;;;;;;;22.60;15.40;;;1.40;99.90;;;;;;5073922;28;20192;-74
2023/04/10 01:40:23;;;;;;;21.20;15.03;;;1.40;99.90;;;;;;5072602;28;20032;-74
2023/04/10 01:42:55;;;;;;;22.10;15.60;;;1.40;99.90;;;;;;5073828;28;20652;-75
2023/04/10 01:45:24;;;;;;;22.80;15.57;;;1.40;99.90;;;;;;5071824;28;20057;-74
2023/04/10 01:47:50;;;;;;;24.27;16.40;;;1.40;99.90;;;;;;5073445;28;20028;-75
2023/04/10 01:50:16;;;;;;;23.33;15.27;;;1.40;99.90;;;;;;5071997;28;20036;-74
2023/04/10 01:52:44;;;;;;;25.93;16.37;;;1.40;99.90;;;;;;5072936;28;20052;-74
2023/04/10 01:55:10;;;;;;;21.97;15.03;;;1.40;99.90;;;;;;5073254;28;20589;-74
2023/04/10 01:57:36;;;;;;;23.53;16.07;;;1.40;99.90;;;;;;5071986;28;20715;-75
2023/04/10 02:00:03;;;;;;;24.40;16.93;;;1.40;99.90;;;;;;5073057;28;20036;-74
2023/04/10 02:02:32;;;;;;;24.00;15.67;;;1.40;99.90;;;;;;5072580;28;20031;-74
2023/04/10 02:04:57;;;;;;;24.03;15.97;;;1.40;99.90;;;;;;5073452;28;20036;-75
2023/04/10 02:07:45;;;;;;;24.67;16.77;;;1.40;99.90;;;;;;5074617;28;20054;-74
2023/04/10 02:10:30;;;;;;;24.70;15.47;;;1.40;99.90;;;;;;5071622;28;20523;-74
2023/04/10 02:13:06;;;;;;;24.40;15.85;;;1.40;99.90;;;;;;5074002;28;20034;-75
2023/04/10 02:15:33;;;;;;;22.47;14.93;;;1.40;99.90;;;;;;5071911;28;20744;-74
2023/04/10 02:18:03;;;;;;;24.73;15.77;;;1.40;99.90;;;;;;5071406;28;20036;-74
2023/04/10 02:20:29;;;;;;;21.63;14.83;;;1.40;99.90;;;;;;5071389;28;20071;-74
2023/04/10 02:22:56;;;;;;;23.13;15.17;;;1.40;99.90;;;;;;5070603;28;21332;-74
2023/04/10 02:25:22;;;;;;;22.80;15.50;;;1.40;99.90;;;;;;5071578;28;20755;-74
2023/04/10 02:27:47;;;;;;;21.33;14.70;;;1.40;99.90;;;;;;5070941;28;20031;-74
2023/04/10 02:30:13;;;;;;;22.60;14.97;;;1.40;99.90;;;;;;5070508;28;20020;-74
2023/04/10 02:32:39;;;;;;;21.23;14.53;;;1.40;99.90;;;;;;5073232;28;20033;-75
2023/04/10 02:35:04;;;;;;;21.83;14.80;;;1.30;99.90;;;;;;5071645;28;20016;-74
2023/04/10 02:37:30;;;;;;;23.77;14.90;;;1.30;99.90;;;;;;5071138;28;20074;-74
2023/04/10 02:39:56;;;;;;;24.60;14.90;;;1.30;99.90;;;;;;5071293;28;20024;-74
2023/04/10 02:42:21;;;;;;;22.13;14.40;;;1.30;99.90;;;;;;5072185;28;20523;-74
2023/04/10 02:44:47;;;;;;;22.17;15.03;;;1.30;99.90;;;;;;5074583;28;20138;-75
2023/04/10 02:47:13;;;;;;;22.97;15.27;;;1.20;99.90;;;;;;5072091;28;20443;-74
2023/04/10 02:49:39;;;;;;;21.13;14.60;;;1.20;99.90;;;;;;5071519;28;20422;-75
2023/04/10 02:52:04;;;;;;;19.97;13.50;;;1.30;99.90;;;;;;5074072;28;20147;-75
2023/04/10 02:54:30;;;;;;;21.93;14.83;;;1.20;99.90;;;;;;5072300;28;20028;-74
2023/04/10 02:56:59;;;;;;;21.10;13.20;;;1.20;99.90;;;;;;5072720;28;20028;-74
2023/04/10 02:59:24;;;;;;;22.60;14.30;;;1.20;99.90;;;;;;5071293;28;20095;-75
2023/04/10 03:01:53;;;;;;;21.53;13.63;;;1.20;99.90;;;;;;5073601;28;20024;-74
2023/04/10 03:04:18;;;;;;;20.13;13.90;;;1.20;99.90;;;;;;5072408;28;20035;-74
2023/04/10 03:06:44;;;;;;;24.70;14.07;;;1.10;99.90;;;;;;5072175;28;20668;-75
2023/04/10 03:09:09;;;;;;;22.00;14.70;;;1.10;99.90;;;;;;5075583;28;20047;-75
2023/04/10 03:11:35;;;;;;;22.00;14.57;;;1.00;99.90;;;;;;5073472;28;20168;-74
2023/04/10 03:14:01;;;;;;;22.53;14.83;;;0.90;99.90;;;;;;5070533;28;20052;-74
2023/04/10 03:16:26;;;;;;;23.53;14.53;;;0.90;99.90;;;;;;5071044;28;20040;-74
2023/04/10 03:18:52;;;;;;;22.87;13.97;;;0.90;99.90;;;;;;5072599;28;20484;-75
2023/04/10 03:21:18;;;;;;;23.10;14.50;;;0.90;99.90;;;;;;5075742;28;20040;-74
2023/04/10 03:23:44;;;;;;;22.73;14.23;;;0.90;99.90;;;;;;5073807;28;20089;-74
2023/04/10 03:26:09;;;;;;;21.73;13.60;;;0.80;99.90;;;;;;5076884;28;20118;-74
2023/04/10 03:28:35;;;;;;;20.10;13.83;;;0.80;99.90;;;;;;5075844;28;20185;-74
2023/04/10 03:31:02;;;;;;;21.83;13.70;;;0.70;99.90;;;;;;5074699;28;20108;-74
2023/04/10 03:33:27;;;;;;;23.27;13.30;;;0.60;99.90;;;;;;5074789;28;20020;-74
2023/04/10 03:35:53;;;;;;;20.87;13.93;;;0.60;99.90;;;;;;5075480;28;20073;-74
2023/04/10 03:38:19;;;;;;;19.90;13.17;;;0.50;99.90;;;;;;5074339;28;20446;-74
2023/04/10 03:40:44;;;;;;;21.60;13.27;;;0.50;99.90;;;;;;5075165;28;20104;-74
2023/04/10 03:43:10;;;;;;;23.87;14.37;;;0.40;99.90;;;;;;5073710;28;20028;-74
2023/04/10 03:45:35;;;;;;;21.33;13.57;;;0.40;99.90;;;;;;5077384;28;20024;-74
2023/04/10 03:48:01;;;;;;;20.40;13.03;;;0.40;99.90;;;;;;5074120;28;20027;-75
2023/04/10 03:50:27;;;;;;;20.77;14.17;;;0.30;99.90;;;;;;5075956;28;20035;-74
2023/04/10 03:52:52;;;;;;;21.93;14.40;;;0.30;99.90;;;;;;5076376;28;20016;-74
2023/04/10 03:55:18;;;;;;;22.13;14.13;;;0.30;99.90;;;;;;5076868;28;20108;-74
2023/04/10 03:57:47;;;;;;;23.33;14.73;;;0.20;99.90;;;;;;5075204;28;20039;-74
2023/04/10 04:00:14;;;;;;;22.00;13.97;;;0.20;99.90;;;;;;5074836;28;20028;-74
2023/04/10 04:02:40;;;;;;;22.77;15.93;;;0.20;99.90;;;;;;5074400;28;20028;-74
2023/04/10 04:05:06;;;;;;;23.23;15.17;;;0.20;99.90;;;;;;5073977;28;20598;-74
2023/04/10 04:07:31;;;;;;;22.60;14.77;;;0.20;99.90;;;;;;5074441;28;20066;-74
2023/04/10 04:09:57;;;;;;;22.40;14.30;;;0.20;99.90;;;;;;5073615;28;20056;-74
2023/04/10 04:12:22;;;;;;;23.53;14.27;;;0.20;99.90;;;;;;5076594;28;20051;-73
2023/04/10 04:14:48;;;;;;;22.47;13.70;;;0.20;99.90;;;;;;5074515;28;20096;-74
2023/04/10 04:17:13;;;;;;;19.73;13.63;;;0.10;99.90;;;;;;5073677;28;20587;-74
2023/04/10 04:19:39;;;;;;;22.60;13.90;;;0.10;99.90;;;;;;5073298;28;20115;-74
2023/04/10 04:22:05;;;;;;;19.47;12.90;;;0.10;99.90;;;;;;5074674;28;20345;-74
2023/04/10 04:24:30;;;;;;;18.70;13.30;;;0.10;99.90;;;;;;5074766;28;20119;-74
2023/04/10 04:26:56;;;;;;;19.40;12.97;;;0.10;99.90;;;;;;5076010;28;20028;-74
2023/04/10 04:29:22;;;;;;;18.37;12.67;;;0.10;99.90;;;;;;5076314;28;20028;-74
2023/04/10 04:31:47;;;;;;;18.67;13.07;;;0.10;99.90;;;;;;5074459;28;20029;-74
2023/04/10 04:34:13;;;;;;;20.23;12.53;;;0.10;99.90;;;;;;5073758;28;20020;-74
2023/04/10 04:36:38;;;;;;;19.50;13.03;;;0.00;99.90;;;;;;5075036;28;20101;-75
2023/04/10 04:39:04;;;;;;;19.27;12.70;;;0.00;99.90;;;;;;5072913;28;20024;-74
2023/04/10 04:41:31;;;;;;;20.73;13.33;;;0.00;99.90;;;;;;5074499;28;20436;-74
2023/04/10 04:43:57;;;;;;;19.83;12.37;;;0.00;99.90;;;;;;5076387;28;20037;-74
2023/04/10 04:46:23;;;;;;;19.07;13.37;;;0.00;99.90;;;;;;5074004;28;20476;-74
2023/04/10 04:48:48;;;;;;;20.00;12.00;;;0.00;99.90;;;;;;5075100;28;20130;-74
2023/04/10 04:51:14;;;;;;;23.30;13.00;;;0.00;99.90;;;;;;5075274;28;20063;-75
2023/04/10 04:53:39;;;;;;;16.83;11.60;;;-0.10;99.90;;;;;;5074088;28;20056;-75
2023/04/10 04:56:05;;;;;;;16.87;11.27;;;-0.10;99.90;;;;;;5076737;28;20058;-75
2023/04/10 04:58:31;;;;;;;17.60;11.60;;;-0.10;99.90;;;;;;5072668;28;20479;-74
2023/04/10 05:00:56;;;;;;;20.00;11.90;;;-0.10;99.90;;;;;;5072598;28;21053;-74
2023/04/10 05:03:22;;;;;;;19.13;11.67;;;-0.10;99.90;;;;;;5073540;28;20032;-75
2023/04/10 05:05:47;;;;;;;16.87;11.67;;;-0.10;99.90;;;;;;5076115;28;20037;-74
2023/04/10 05:08:13;;;;;;;16.47;11.47;;;0.00;99.90;;;;;;5076324;28;20032;-75
2023/04/10 05:10:39;;;;;;;16.87;11.43;;;0.00;99.90;;;;;;5073311;28;20042;-75
2023/04/10 05:13:04;;;;;;;17.23;11.47;;;0.00;99.90;;;;;;5073608;28;20028;-75
2023/04/10 05:15:30;;;;;;;19.70;12.73;;;0.00;99.90;;;;;;5074109;28;20062;-75
2023/04/10 05:17:55;;;;;;;19.00;13.13;;;0.10;99.90;;;;;;5072147;28;20072;-76
2023/04/10 05:20:21;;;;;;;21.37;14.10;;;0.10;99.90;;;;;;5072275;28;20062;-76
2023/04/10 05:22:47;;;;;;;18.93;13.27;;;0.20;99.90;;;;;;5075200;28;20130;-76
2023/04/10 05:25:12;;;;;;;20.57;14.13;;;0.20;99.90;;;;;;5072772;28;20044;-76
2023/04/10 05:27:38;;;;;;;20.17;13.80;;;0.30;99.90;;;;;;5073085;28;20399;-76
2023/04/10 05:30:04;;;;;;;18.90;13.63;;;0.30;99.90;;;;;;5072525;28;20117;-76
2023/04/10 05:32:30;;;;;;;21.03;13.57;;;0.40;99.90;;;;;;5072382;28;20024;-76
2023/04/10 05:34:55;;;;;;;21.53;14.27;;;0.50;99.90;;;;;;5072225;28;20035;-76
2023/04/10 05:37:21;;;;;;;23.13;15.83;;;0.50;99.90;;;;;;5070824;28;20046;-76
2023/04/10 05:39:46;;;;;;;21.07;14.30;;;0.50;99.90;;;;;;5072017;28;20029;-76
2023/04/10 05:42:12;;;;;;;22.47;14.77;;;0.60;99.90;;;;;;5073665;28;20089;-76
2023/04/10 05:44:38;;;;;;;21.23;14.50;;;0.60;99.90;;;;;;5071992;28;20107;-76
2023/04/10 05:47:03;;;;;;;24.73;15.10;;;0.70;99.90;;;;;;5073249;28;20048;-76
2023/04/10 05:49:29;;;;;;;25.03;15.57;;;0.80;99.90;;;;;;5072997;28;20077;-76
2023/04/10 05:51:55;;;;;;;21.53;14.40;;;0.90;99.90;;;;;;5073733;28;21003;-76
2023/04/10 05:54:20;;;;;;;25.63;15.27;;;1.00;99.90;;;;;;5071210;28;20019;-76
2023/04/10 05:56:46;;;;;;;23.33;15.23;;;1.20;99.90;;;;;;5073944;28;20392;-77
2023/04/10 05:59:12;;;;;;;20.50;14.23;;;1.30;99.90;;;;;;5072713;28;20025;-76
2023/04/10 06:01:38;;;;;;;47.57;23.73;;;1.40;99.90;;;;;;5073102;28;20039;-77
2023/04/10 06:04:04;;;;;;;99.00;55.70;;;1.50;99.90;;;;;;5072425;28;20105;-77
2023/04/10 06:06:31;;;;;;;30.17;19.33;;;1.60;99.90;;;;;;5073106;28;20028;-77
2023/04/10 06:08:57;;;;;;;19.30;13.17;;;1.80;99.90;;;;;;5071151;28;20691;-77
2023/04/10 06:11:22;;;;;;;18.07;12.97;;;2.00;99.90;;;;;;5071215;28;20024;-77
2023/04/10 06:13:48;;;;;;;20.53;14.13;;;2.10;99.90;;;;;;5072578;28;20919;-78
2023/04/10 06:16:15;;;;;;;26.10;17.37;;;2.30;99.90;;;;;;5073971;28;20127;-79
2023/04/10 06:18:40;;;;;;;26.90;17.53;;;2.40;99.90;;;;;;5073122;28;20034;-78
2023/04/10 06:21:06;;;;;;;25.10;16.43;;;2.50;99.90;;;;;;5072875;28;20028;-78
2023/04/10 06:23:32;;;;;;;23.93;15.03;;;2.60;99.90;;;;;;5074445;28;20170;-80
2023/04/10 06:25:58;;;;;;;18.73;14.03;;;2.70;99.90;;;;;;5074680;28;20388;-78
2023/04/10 06:28:24;;;;;;;20.07;14.33;;;2.80;99.90;;;;;;5074448;28;20024;-78
2023/04/10 06:30:49;;;;;;;21.47;14.87;;;3.00;99.90;;;;;;5071371;28;20039;-78
2023/04/10 06:33:15;;;;;;;17.90;12.30;;;3.10;99.90;;;;;;5075393;28;20024;-78
2023/04/10 06:35:41;;;;;;;17.17;12.40;;;3.20;99.90;;;;;;5072409;28;20063;-79
2023/04/10 06:38:07;;;;;;;16.17;11.60;;;3.40;99.90;;;;;;5075013;28;20075;-82
2023/04/10 06:40:33;;;;;;;16.97;11.93;;;3.60;99.90;;;;;;5094823;22;20133;-78
2023/04/10 06:42:59;;;;;;;15.80;11.10;;;3.70;99.90;;;;;;5053719;28;20163;-75
2023/04/10 06:45:25;;;;;;;18.90;12.47;;;3.90;99.90;;;;;;5056256;28;20045;-77
2023/04/10 06:47:51;;;;;;;19.73;14.13;;;4.00;99.90;;;;;;5048874;28;20484;-75
2023/04/10 06:50:16;;;;;;;15.87;11.07;;;4.20;99.90;;;;;;5050828;28;20075;-75
2023/04/10 06:52:46;;;;;;;16.63;11.00;;;4.30;99.90;;;;;;5050099;28;20020;-75
2023/04/10 06:55:12;;;;;;;14.60;11.00;;;4.50;99.90;;;;;;5053713;28;20098;-75
2023/04/10 06:57:38;;;;;;;15.87;11.80;;;4.60;99.90;;;;;;5055590;28;20044;-76
2023/04/10 07:00:05;;;;;;;15.20;10.90;;;4.80;99.90;;;;;;5055122;28;20073;-76
2023/04/10 07:02:30;;;;;;;13.83;10.17;;;4.90;99.90;;;;;;5053731;28;20032;-76
2023/04/10 07:04:56;;;;;;;15.40;11.00;;;5.00;99.90;;;;;;5054631;28;20039;-76
2023/04/10 07:07:22;;;;;;;14.53;9.40;;;5.20;99.90;;;;;;5054926;28;20058;-76
2023/04/10 07:09:48;;;;;;;14.23;9.80;;;5.40;99.90;;;;;;5053790;28;20024;-74
2023/04/10 07:12:13;;;;;;;14.40;11.00;;;5.50;99.90;;;;;;5054984;28;20036;-75
2023/04/10 07:14:40;;;;;;;13.33;9.90;;;5.70;99.90;;;;;;5055409;28;20021;-76
2023/04/10 07:17:05;;;;;;;13.03;8.77;;;5.80;99.90;;;;;;5054483;28;20163;-75
2023/04/10 07:19:31;;;;;;;11.27;8.47;;;6.00;99.90;;;;;;5051562;28;20039;-75
2023/04/10 07:21:56;;;;;;;11.77;9.17;;;6.10;99.90;;;;;;5054955;28;20031;-75
2023/04/10 07:24:22;;;;;;;11.70;9.00;;;6.30;99.90;;;;;;5054186;28;20035;-75
2023/04/10 07:26:48;;;;;;;12.93;9.40;;;6.40;99.90;;;;;;5053985;28;20035;-75
2023/04/10 07:29:14;;;;;;;11.73;8.90;;;6.60;99.90;;;;;;5054107;28;20093;-75
2023/04/10 07:31:39;;;;;;;21.80;14.27;;;6.70;99.90;;;;;;5053550;28;20044;-75
2023/04/10 07:34:05;;;;;;;14.80;10.70;;;6.80;99.90;;;;;;5047649;28;20021;-76
2023/04/10 07:36:31;;;;;;;12.20;8.97;;;6.90;99.90;;;;;;5051592;28;20184;-75
2023/04/10 07:38:57;;;;;;;11.77;8.90;;;7.00;99.90;;;;;;5051315;28;20029;-75
2023/04/10 07:41:23;;;;;;;11.50;9.00;;;7.10;99.90;;;;;;5050590;28;20037;-76
2023/04/10 07:43:48;;;;;;;14.33;11.37;;;7.20;99.90;;;;;;5052632;28;20033;-75
2023/04/10 07:46:14;;;;;;;14.70;11.23;;;7.30;99.90;;;;;;5053505;28;20033;-75
2023/04/10 07:48:40;;;;;;;11.13;8.63;;;7.50;99.90;;;;;;5053936;28;20025;-75
2023/04/10 07:51:08;;;;;;;10.67;8.67;;;7.60;99.90;;;;;;5052354;28;20033;-75
2023/04/10 07:53:35;;;;;;;20.30;13.50;;;7.70;99.90;;;;;;5051192;28;20032;-75
2023/04/10 07:56:00;;;;;;;11.67;8.87;;;7.90;99.90;;;;;;5052794;28;20519;-76
2023/04/10 07:58:26;;;;;;;12.80;9.17;;;8.00;99.90;;;;;;5053730;28;20036;-76
2023/04/10 08:00:52;;;;;;;21.47;15.00;;;8.10;99.90;;;;;;5053227;28;20029;-76
2023/04/10 08:03:17;;;;;;;10.50;8.17;;;8.30;99.90;;;;;;5051815;28;20047;-76
2023/04/10 08:05:43;;;;;;;19.97;13.90;;;8.30;99.90;;;;;;5049377;28;20029;-78
2023/04/10 08:08:08;;;;;;;11.40;8.50;;;8.40;99.90;;;;;;5052808;28;20040;-77
2023/04/10 08:10:38;;;;;;;9.80;7.27;;;8.40;99.90;;;;;;5051599;28;20060;-76
2023/04/10 08:13:04;;;;;;;12.80;8.73;;;8.50;99.90;;;;;;5052217;28;20513;-75
2023/04/10 08:15:30;;;;;;;14.70;10.30;;;8.60;99.90;;;;;;5053424;28;20848;-77
2023/04/10 08:17:55;;;;;;;14.73;9.70;;;8.80;99.90;;;;;;5051751;28;20037;-80
2023/04/10 08:20:21;;;;;;;15.13;10.33;;;8.90;99.90;;;;;;5049509;28;20495;-72
2023/04/10 08:22:47;;;;;;;19.90;12.17;;;8.90;99.90;;;;;;5052768;28;20020;-78
2023/04/10 08:25:12;;;;;;;15.67;10.60;;;9.00;99.90;;;;;;5052717;28;20043;-77
2023/04/10 08:27:38;;;;;;;10.53;8.60;;;9.10;99.90;;;;;;5053609;28;20040;-75
2023/04/10 08:30:04;;;;;;;9.13;6.70;;;9.10;99.90;;;;;;5051039;28;20060;-75
2023/04/10 08:32:30;;;;;;;8.70;6.63;;;9.10;99.90;;;;;;5053285;28;20995;-75
2023/04/10 08:34:55;;;;;;;9.57;7.30;;;9.30;99.90;;;;;;5054996;28;20036;-75
2023/04/10 08:37:21;;;;;;;8.77;6.67;;;9.30;99.90;;;;;;5053979;28;20112;-75
2023/04/10 08:39:47;;;;;;;8.57;6.57;;;9.30;99.90;;;;;;5051224;28;20037;-76
2023/04/10 08:42:12;;;;;;;8.50;6.90;;;9.40;99.90;;;;;;5052994;28;20040;-76
2023/04/10 08:44:38;;;;;;;8.73;7.00;;;9.50;99.90;;;;;;5054619;28;21530;-76
2023/04/10 08:47:05;;;;;;;7.63;5.73;;;9.60;99.90;;;;;;5050471;28;20033;-75
2023/04/10 08:49:45;;;;;;;7.33;5.83;;;9.70;99.90;;;;;;5035074;28;20064;-76
2023/04/10 08:52:16;;;;;;;7.37;5.47;;;9.70;99.90;;;;;;5052310;28;20860;-77
2023/04/10 08:54:47;;;;;;;7.33;5.83;;;9.80;99.90;;;;;;5053607;28;20037;-76
2023/04/10 08:57:19;;;;;;;8.07;5.90;;;10.00;99.90;;;;;;5050158;28;20052;-76
2023/04/10 08:59:45;;;;;;;7.70;5.87;;;10.20;99.90;;;;;;5052768;28;20768;-76
2023/04/10 09:02:11;;;;;;;7.27;6.03;;;10.30;99.90;;;;;;5052402;28;20115;-77
2023/04/10 09:04:37;;;;;;;8.20;6.60;;;10.40;99.90;;;;;;5050066;28;21303;-76
2023/04/10 09:07:02;;;;;;;7.70;6.10;;;10.50;99.90;;;;;;5050378;28;20507;-77
2023/04/10 09:09:31;;;;;;;7.37;6.00;;;10.60;99.90;;;;;;5051981;28;20679;-76
2023/04/10 09:12:02;;;;;;;7.50;6.13;;;10.70;99.90;;;;;;5050532;28;20039;-77
2023/04/10 09:14:32;;;;;;;6.67;5.20;;;10.90;99.90;;;;;;5053367;28;20844;-77
2023/04/10 09:17:11;;;;;;;8.57;7.07;;;11.10;99.90;;;;;;5051564;28;20047;-76
2023/04/10 09:19:37;;;;;;;8.17;6.33;;;11.30;99.90;;;;;;5052209;28;20036;-77
2023/04/10 09:22:03;;;;;;;8.57;6.72;;;11.60;99.90;;;;;;5053081;28;20404;-77
2023/04/10 09:24:28;;;;;;;7.55;5.60;;;11.70;99.90;;;;;;5054819;28;20082;-76
2023/04/10 09:26:54;;;;;;;7.40;5.82;;;11.90;99.90;;;;;;5053445;28;20495;-77
2023/04/10 09:29:20;;;;;;;7.63;6.13;;;12.00;99.90;;;;;;5053259;28;20037;-77
2023/04/10 09:31:46;;;;;;;6.43;5.13;;;12.20;99.90;;;;;;5052128;28;20024;-76
2023/04/10 09:34:13;;;;;;;7.65;6.07;;;12.30;99.90;;;;;;5051975;28;20028;-76
2023/04/10 09:36:40;;;;;;;6.57;5.30;;;12.20;99.90;;;;;;5054550;28;20041;-76
2023/04/10 09:39:07;;;;;;;8.05;5.07;;;12.20;99.90;;;;;;5053464;28;20048;-76
2023/04/10 09:41:33;;;;;;;6.65;5.10;;;12.30;99.90;;;;;;5052384;28;20431;-77
2023/04/10 09:44:06;;;;;;;6.13;4.80;;;12.50;99.90;;;;;;5052942;28;20024;-76
2023/04/10 09:46:32;;;;;;;5.88;5.28;;;12.60;99.90;;;;;;5053198;28;20020;-77
2023/04/10 09:49:01;;;;;;;5.95;5.10;;;12.90;99.90;;;;;;5050973;28;20033;-79
2023/04/10 09:51:29;;;;;;;6.07;5.25;;;12.90;99.90;;;;;;5054196;28;20442;-77
2023/04/10 09:53:55;;;;;;;5.10;4.38;;;12.90;99.90;;;;;;5050542;28;20109;-76
2023/04/10 09:56:21;;;;;;;4.40;4.00;;;13.00;99.90;;;;;;5051271;28;20048;-76
2023/04/10 09:58:48;;;;;;;5.95;4.97;;;13.00;99.90;;;;;;5051678;28;20068;-76
2023/04/10 10:01:14;;;;;;;5.97;4.75;;;13.00;99.90;;;;;;5052324;28;20056;-76
2023/04/10 10:03:40;;;;;;;5.35;4.55;;;13.20;99.90;;;;;;5052248;28;20779;-76
2023/04/10 10:06:06;;;;;;;5.82;4.53;;;13.30;99.90;;;;;;5054278;28;20028;-76
2023/04/10 10:08:33;;;;;;;7.68;4.75;;;13.40;99.90;;;;;;5052638;28;21454;-77
2023/04/10 10:11:00;;;;;;;5.03;4.35;;;13.30;99.90;;;;;;5053425;28;20033;-76
2023/04/10 10:13:45;;;;;;;5.10;4.28;;;13.30;99.90;;;;;;5050974;28;20039;-77
2023/04/10 10:16:17;;;;;;;6.78;4.45;;;13.50;99.90;;;;;;5052511;28;20475;-77
2023/04/10 10:19:16;;;;;;;6.90;5.68;;;13.60;99.90;;;;;;5052967;28;20086;-76
2023/04/10 10:21:43;;;;;;;6.15;5.00;;;13.80;99.90;;;;;;5053100;28;20028;-76
2023/04/10 10:24:11;;;;;;;5.88;4.30;;;14.10;99.90;;;;;;5055545;28;20029;-74
2023/04/10 10:26:38;;;;;;;5.65;4.57;;;14.10;99.90;;;;;;5047203;28;20032;-74
2023/04/10 10:29:09;;;;;;;6.18;5.13;;;14.20;99.90;;;;;;5048197;28;20037;-73
2023/04/10 10:31:36;;;;;;;4.85;4.22;;;14.10;99.90;;;;;;5047732;28;20040;-73
2023/04/10 10:34:04;;;;;;;6.00;4.60;;;14.20;99.90;;;;;;5045028;28;20728;-73
2023/04/10 10:36:31;;;;;;;5.30;4.18;;;14.50;99.90;;;;;;5045738;28;20114;-73
2023/04/10 10:39:32;;;;;;;5.63;4.28;;;14.70;99.90;;;;;;5044513;28;20049;-73
2023/04/10 10:42:14;;;;;;;6.07;4.38;;;14.80;98.80;;;;;;5043652;28;20689;-74
2023/04/10 10:44:53;;;;;;;8.85;5.85;;;15.00;98.60;;;;;;5047808;28;20035;-73
2023/04/10 10:47:23;;;;;;;6.30;5.13;;;15.00;99.50;;;;;;5049128;28;20030;-77
2023/04/10 10:49:54;;;;;;;20.83;12.38;;;15.00;99.90;;;;;;5049798;28;20040;-75
2023/04/10 10:52:43;;;;;;;8.18;6.22;;;15.20;99.00;;;;;;5046414;28;20036;-73
2023/04/10 10:55:20;;;;;;;17.45;11.95;;;15.50;97.70;;;;;;5053022;28;20047;-73
2023/04/10 10:57:47;;;;;;;5.82;5.05;;;15.30;99.50;;;;;;5047212;28;20153;-75
2023/04/10 11:00:15;;;;;;;5.13;4.55;;;15.50;97.10;;;;;;5051374;28;20123;-73
2023/04/10 11:02:41;;;;;;;5.68;4.65;;;15.40;94.90;;;;;;5053063;28;20115;-74
2023/04/10 11:05:06;;;;;;;5.55;4.22;;;15.40;94.60;;;;;;5052359;28;20032;-75
2023/04/10 11:07:58;;;;;;;5.25;4.60;;;15.50;95.10;;;;;;5049679;28;20041;-75
2023/04/10 11:11:00;;;;;;;5.22;4.20;;;15.60;96.50;;;;;;5037743;28;20037;-75
2023/04/10 11:13:25;;;;;;;4.70;3.75;;;15.70;94.00;;;;;;5050067;28;20044;-77
2023/04/10 11:15:51;;;;;;;4.97;3.90;;;15.80;94.90;;;;;;5053291;28;20016;-76
2023/04/10 11:18:19;;;;;;;6.28;4.88;;;16.10;92.60;;;;;;5052441;28;20096;-75
2023/04/10 11:21:07;;;;;;;5.10;4.20;;;16.30;95.30;;;;;;5050286;28;20113;-76
2023/04/10 11:23:33;;;;;;;8.40;6.63;;;16.50;92.40;;;;;;5050916;28;20079;-76
2023/04/10 11:25:59;;;;;;;5.82;4.60;;;16.30;92.20;;;;;;5050497;28;20100;-81
2023/04/10 11:28:35;;;;;;;5.35;4.30;;;16.00;91.90;;;;;;5053102;28;20025;-80
2023/04/10 11:31:20;;;;;;;6.60;4.72;;;16.00;91.50;;;;;;5051971;28;20074;-80
2023/04/10 11:33:59;;;;;;;;;;;16.20;92.40;;;;;;5051358;28;20166;-78
2023/04/10 11:36:26;;;;;;;5.03;3.63;;;16.40;88.40;;;;;;5051481;28;19920;-79
2023/04/10 11:39:09;;;;;;;6.35;3.90;;;16.30;88.80;;;;;;5052431;28;20496;-79
2023/04/10 11:41:56;;;;;;;4.25;3.85;;;16.70;91.20;;;;;;5054989;28;20032;-78
2023/04/10 11:44:30;;;;;;;5.18;4.13;;;16.80;90.00;;;;;;5054851;28;20031;-79
2023/04/10 11:46:56;;;;;;;12.02;10.52;;;17.00;89.10;;;;;;5055306;28;20028;-81
2023/04/10 11:49:29;;;;;;;15.32;13.80;;;17.00;91.00;;;;;;5055620;28;20033;-79
2023/04/10 11:51:54;;;;;;;4.80;4.28;;;17.30;87.10;;;;;;5035184;28;20039;-79
2023/04/10 11:54:21;;;;;;;7.45;6.68;;;17.40;86.60;;;;;;5050859;28;20033;-80
2023/04/10 11:57:02;;;;;;;6.78;6.00;;;17.50;86.80;;;;;;5054513;28;20044;-80
2023/04/10 11:59:29;;;;;;;6.93;6.22;;;17.40;87.40;;;;;;5053944;28;20062;-79
2023/04/10 12:02:13;;;;;;;4.75;4.20;;;17.50;84.30;;;;;;5052249;28;20024;-79
2023/04/10 12:04:39;;;;;;;4.60;3.72;;;17.50;83.90;;;;;;5053323;28;20032;-81
2023/04/10 12:07:05;;;;;;;4.60;3.95;;;17.70;84.50;;;;;;5053909;28;20040;-78
2023/04/10 12:09:31;;;;;;;5.57;4.07;;;17.90;84.00;;;;;;5053351;28;20029;-82
2023/04/10 12:12:02;;;;;;;5.28;4.75;;;18.00;84.00;;;;;;5052407;28;20050;-77
2023/04/10 12:14:32;;;;;;;6.82;5.85;;;18.20;83.80;;;;;;5055922;28;20106;-78
2023/04/10 12:16:59;;;;;;;3.92;2.88;;;18.40;83.40;;;;;;5055705;28;20096;-78
2023/04/10 12:19:26;;;;;;;4.20;3.40;;;18.60;78.00;;;;;;5052282;28;20029;-76
2023/04/10 12:21:52;;;;;;;3.75;2.65;;;18.60;77.50;;;;;;5053995;28;20039;-77
2023/04/10 12:24:43;;;;;;;3.42;2.67;;;18.60;72.40;;;;;;5056022;28;21256;-77
2023/04/10 12:27:19;;;;;;;4.90;2.75;;;18.80;73.10;;;;;;5059657;28;20062;-77
2023/04/10 12:29:46;;;;;;;3.63;3.00;;;18.90;71.20;;;;;;5053026;28;20105;-77
2023/04/10 12:32:12;;;;;;;4.70;3.80;;;19.00;72.50;;;;;;5056784;28;20040;-77
2023/04/10 12:34:38;;;;;;;4.55;3.65;;;19.20;74.20;;;;;;5054021;28;20028;-78
2023/04/10 12:37:04;;;;;;;3.70;2.90;;;19.00;75.20;;;;;;5054882;28;20033;-77
2023/04/10 12:39:29;;;;;;;5.15;2.92;;;18.80;74.90;;;;;;5053550;28;20029;-76
2023/04/10 12:42:19;;;;;;;5.38;3.20;;;18.20;73.20;;;;;;5053607;28;20469;-77
2023/04/10 12:44:55;;;;;;;5.22;4.20;;;18.30;74.80;;;;;;5053830;28;20104;-77